This is the latest recevied weather packets stored in our database for station/object ALAKES. If no packets are shown the sender has not sent any weather packets the latest 10 day(s).
| Time | Temp. | Humidity | Pressure | Rain* | Wind** | Luminosity | Snow |
|---|---|---|---|---|---|---|---|
| 1787442593 | 19.44° C | 33% | - | 0 mm | - | - | - |
| 1787441969 | 20° C | 32% | - | 0 mm | - | - | - |
| 1787441351 | 19.44° C | 34% | - | 0 mm | - | - | - |
| 1787440728 | 19.44° C | 33% | - | 0 mm | - | - | - |
| 1787440106 | 18.89° C | 39% | - | 0 mm | - | - | - |
| 1787439604 | 18.89° C | 38% | - | 0 mm | - | - | - |
| 1787439480 | 18.89° C | 38% | - | 0 mm | - | - | - |
| 1787438887 | 18.33° C | 41% | - | 0 mm | - | - | - |
| 1787438852 | 18.33° C | 41% | - | 0 mm | - | - | - |
| 1787438223 | 17.78° C | 43% | - | 0 mm | - | - | - |
| 1787437597 | 18.89° C | 39% | - | 0 mm | - | - | - |
| 1787436967 | 17.78° C | 42% | - | 0 mm | - | - | - |
| 1787436341 | 17.78° C | 43% | - | 0 mm | - | - | - |
| 1787435713 | 17.78° C | 40% | - | 0 mm | - | - | - |
| 1787435131 | 17.22° C | 45% | - | 0 mm | - | - | - |
| 1787435087 | 17.22° C | 45% | - | 0 mm | - | - | - |
| 1787434462 | 16.67° C | 47% | - | 0 mm | - | - | - |
| 1787433842 | 16.67° C | 46% | - | 0 mm | - | - | - |
| 1787433214 | 17.22° C | - | 0 hPa | - | - | - | - |
| 1787432654 | 17.78° C | 39% | - | 0 mm | - | - | - |
| 1787432593 | 17.78° C | 39% | - | 0 mm | - | - | - |
| 1787431961 | 18.33° C | 37% | - | 0 mm | - | - | - |
| 1787431389 | 18.89° C | 37% | - | 0 mm | - | - | - |
| 1787431337 | 18.89° C | 37% | - | 0 mm | - | - | - |
| 1787430701 | 18.33° C | 38% | - | 0 mm | - | - | - |
* Rain latest 24 hours (hover to see other rain measurements)
** Current wind speed in m/s (hover to see current wind gust speed)